Amston, Connecticut
Current Conditions -  °F | °C
As of 9:28 AM on Tuesday 27 Jan 2015 (Local Time) from KIJD Reporting Station
Haze Haze  
Wind Chill: -13°   Ceiling: 1000
Heat Index: -6°   Visibility: 0.5mi
Dew Point: -9°   Wind: 12mph
Humidity: 81%   Direction: 350°N
Pressure: 29.55"   Gusts: NA
Location:  41.63°N, 72.34°W
Report Text: KIJD 271428Z AUTO 35010KT 1/2SM HZ VV010 M06/M09 A2955 RMK AO2 PK WND 02030/1407 T10611089 PWINO FZRANO $
Loading
Personal Weather Stations






























Interactive Weather Map New forecast layout! Learn more

10-Day Weather Forecast

Advertisements
Track Severe Weather on mobile